sensor_id;sensor_type;location;lat;lon;timestamp;P1;durP1;ratioP1;P2;durP2;ratioP2
11092;SDS011;5600;50.864;6.102;2022-12-10T00:00:50;62.87;;;20.87;;
11092;SDS011;5600;50.864;6.102;2022-12-10T00:03:51;64.20;;;21.87;;
11092;SDS011;5600;50.864;6.102;2022-12-10T00:06:52;73.13;;;22.53;;
11092;SDS011;5600;50.864;6.102;2022-12-10T00:09:52;72.97;;;22.73;;
11092;SDS011;5600;50.864;6.102;2022-12-10T00:12:53;76.00;;;23.73;;
11092;SDS011;5600;50.864;6.102;2022-12-10T00:15:54;62.77;;;22.03;;
11092;SDS011;5600;50.864;6.102;2022-12-10T00:18:54;65.00;;;21.10;;
11092;SDS011;5600;50.864;6.102;2022-12-10T00:21:55;68.47;;;22.60;;
11092;SDS011;5600;50.864;6.102;2022-12-10T00:24:56;70.07;;;23.07;;
11092;SDS011;5600;50.864;6.102;2022-12-10T00:27:56;61.87;;;22.20;;
11092;SDS011;5600;50.864;6.102;2022-12-10T00:31:01;78.13;;;23.70;;
11092;SDS011;5600;50.864;6.102;2022-12-10T00:34:03;65.10;;;21.93;;
11092;SDS011;5600;50.864;6.102;2022-12-10T00:37:05;95.80;;;24.67;;
11092;SDS011;5600;50.864;6.102;2022-12-10T00:40:06;69.47;;;22.70;;
11092;SDS011;5600;50.864;6.102;2022-12-10T00:43:07;72.03;;;22.70;;
11092;SDS011;5600;50.864;6.102;2022-12-10T00:46:08;62.03;;;22.03;;
11092;SDS011;5600;50.864;6.102;2022-12-10T00:49:09;57.37;;;22.53;;
11092;SDS011;5600;50.864;6.102;2022-12-10T00:52:10;62.10;;;22.17;;
11092;SDS011;5600;50.864;6.102;2022-12-10T00:55:11;63.30;;;21.93;;
11092;SDS011;5600;50.864;6.102;2022-12-10T00:58:12;64.70;;;21.87;;
11092;SDS011;5600;50.864;6.102;2022-12-10T01:01:17;60.53;;;22.33;;
11092;SDS011;5600;50.864;6.102;2022-12-10T01:04:28;65.07;;;22.57;;
11092;SDS011;5600;50.864;6.102;2022-12-10T01:07:29;83.70;;;24.57;;
11092;SDS011;5600;50.864;6.102;2022-12-10T01:10:29;68.40;;;22.60;;
11092;SDS011;5600;50.864;6.102;2022-12-10T01:13:30;79.67;;;24.17;;
11092;SDS011;5600;50.864;6.102;2022-12-10T01:16:31;79.10;;;23.90;;
11092;SDS011;5600;50.864;6.102;2022-12-10T01:19:32;84.27;;;24.87;;
11092;SDS011;5600;50.864;6.102;2022-12-10T01:22:35;83.37;;;24.77;;
11092;SDS011;5600;50.864;6.102;2022-12-10T01:25:36;77.13;;;24.23;;
11092;SDS011;5600;50.864;6.102;2022-12-10T01:28:37;82.70;;;25.03;;
11092;SDS011;5600;50.864;6.102;2022-12-10T01:31:39;75.73;;;23.77;;
11092;SDS011;5600;50.864;6.102;2022-12-10T01:34:40;70.17;;;22.77;;
11092;SDS011;5600;50.864;6.102;2022-12-10T01:37:41;81.63;;;23.43;;
11092;SDS011;5600;50.864;6.102;2022-12-10T01:40:41;82.87;;;23.97;;
11092;SDS011;5600;50.864;6.102;2022-12-10T01:47:01;80.90;;;23.70;;
11092;SDS011;5600;50.864;6.102;2022-12-10T01:50:05;75.97;;;23.40;;
11092;SDS011;5600;50.864;6.102;2022-12-10T01:53:07;79.43;;;23.00;;
11092;SDS011;5600;50.864;6.102;2022-12-10T01:56:09;74.73;;;24.17;;
11092;SDS011;5600;50.864;6.102;2022-12-10T01:59:10;75.70;;;23.10;;
11092;SDS011;5600;50.864;6.102;2022-12-10T02:02:22;80.77;;;23.53;;
11092;SDS011;5600;50.864;6.102;2022-12-10T02:05:44;90.13;;;24.30;;
11092;SDS011;5600;50.864;6.102;2022-12-10T02:09:08;73.27;;;23.53;;
11092;SDS011;5600;50.864;6.102;2022-12-10T02:12:17;72.77;;;22.40;;
11092;SDS011;5600;50.864;6.102;2022-12-10T02:15:26;72.93;;;23.17;;
11092;SDS011;5600;50.864;6.102;2022-12-10T02:18:36;84.17;;;24.53;;
11092;SDS011;5600;50.864;6.102;2022-12-10T02:21:53;60.60;;;22.23;;
11092;SDS011;5600;50.864;6.102;2022-12-10T02:24:57;77.13;;;22.43;;
11092;SDS011;5600;50.864;6.102;2022-12-10T02:28:07;73.87;;;22.57;;
11092;SDS011;5600;50.864;6.102;2022-12-10T02:31:26;71.93;;;22.13;;
11092;SDS011;5600;50.864;6.102;2022-12-10T02:34:32;74.60;;;21.80;;
11092;SDS011;5600;50.864;6.102;2022-12-10T02:37:51;82.20;;;22.90;;
11092;SDS011;5600;50.864;6.102;2022-12-10T02:41:01;69.83;;;21.77;;
11092;SDS011;5600;50.864;6.102;2022-12-10T02:44:11;64.63;;;21.40;;
11092;SDS011;5600;50.864;6.102;2022-12-10T02:47:15;76.93;;;21.80;;
11092;SDS011;5600;50.864;6.102;2022-12-10T02:50:20;68.67;;;22.03;;
11092;SDS011;5600;50.864;6.102;2022-12-10T02:53:23;73.43;;;22.60;;
11092;SDS011;5600;50.864;6.102;2022-12-10T02:56:34;76.60;;;23.73;;
11092;SDS011;5600;50.864;6.102;2022-12-10T02:59:53;78.90;;;23.93;;
11092;SDS011;5600;50.864;6.102;2022-12-10T03:03:04;68.67;;;22.70;;
11092;SDS011;5600;50.864;6.102;2022-12-10T03:06:13;72.70;;;23.97;;
11092;SDS011;5600;50.864;6.102;2022-12-10T03:09:25;81.07;;;25.30;;
11092;SDS011;5600;50.864;6.102;2022-12-10T03:12:39;88.70;;;24.93;;
11092;SDS011;5600;50.864;6.102;2022-12-10T03:15:43;88.47;;;25.53;;
11092;SDS011;5600;50.864;6.102;2022-12-10T03:18:46;79.17;;;23.97;;
11092;SDS011;5600;50.864;6.102;2022-12-10T03:21:50;68.17;;;22.50;;
11092;SDS011;5600;50.864;6.102;2022-12-10T03:24:53;79.00;;;23.90;;
11092;SDS011;5600;50.864;6.102;2022-12-10T03:27:54;82.73;;;24.40;;
11092;SDS011;5600;50.864;6.102;2022-12-10T03:30:56;82.57;;;24.33;;
11092;SDS011;5600;50.864;6.102;2022-12-10T03:33:57;82.00;;;23.27;;
11092;SDS011;5600;50.864;6.102;2022-12-10T03:36:58;81.40;;;23.00;;
11092;SDS011;5600;50.864;6.102;2022-12-10T03:39:59;79.20;;;23.17;;
11092;SDS011;5600;50.864;6.102;2022-12-10T03:43:01;76.77;;;22.53;;
11092;SDS011;5600;50.864;6.102;2022-12-10T03:46:02;70.17;;;22.23;;
11092;SDS011;5600;50.864;6.102;2022-12-10T03:49:03;71.90;;;23.57;;
11092;SDS011;5600;50.864;6.102;2022-12-10T03:52:04;68.73;;;21.97;;
11092;SDS011;5600;50.864;6.102;2022-12-10T03:55:05;70.27;;;22.47;;
11092;SDS011;5600;50.864;6.102;2022-12-10T03:58:06;65.40;;;21.83;;
11092;SDS011;5600;50.864;6.102;2022-12-10T04:01:07;67.07;;;20.93;;
11092;SDS011;5600;50.864;6.102;2022-12-10T04:04:08;71.13;;;21.57;;
11092;SDS011;5600;50.864;6.102;2022-12-10T04:07:09;84.63;;;22.60;;
11092;SDS011;5600;50.864;6.102;2022-12-10T04:10:09;75.93;;;22.87;;
11092;SDS011;5600;50.864;6.102;2022-12-10T04:13:10;65.97;;;20.30;;
11092;SDS011;5600;50.864;6.102;2022-12-10T04:16:30;70.53;;;21.17;;
11092;SDS011;5600;50.864;6.102;2022-12-10T04:19:32;74.83;;;21.13;;
11092;SDS011;5600;50.864;6.102;2022-12-10T04:22:33;83.77;;;24.63;;
11092;SDS011;5600;50.864;6.102;2022-12-10T04:25:52;85.30;;;23.23;;
11092;SDS011;5600;50.864;6.102;2022-12-10T04:29:11;81.23;;;22.93;;
11092;SDS011;5600;50.864;6.102;2022-12-10T04:32:12;82.13;;;22.67;;
11092;SDS011;5600;50.864;6.102;2022-12-10T04:35:13;75.70;;;21.50;;
11092;SDS011;5600;50.864;6.102;2022-12-10T04:38:13;83.40;;;23.83;;
11092;SDS011;5600;50.864;6.102;2022-12-10T04:41:14;76.43;;;23.43;;
11092;SDS011;5600;50.864;6.102;2022-12-10T04:44:15;68.80;;;22.10;;
11092;SDS011;5600;50.864;6.102;2022-12-10T04:47:16;79.37;;;22.93;;
11092;SDS011;5600;50.864;6.102;2022-12-10T04:50:18;80.90;;;23.03;;
11092;SDS011;5600;50.864;6.102;2022-12-10T04:53:18;82.40;;;23.80;;
11092;SDS011;5600;50.864;6.102;2022-12-10T04:56:19;76.20;;;23.37;;
11092;SDS011;5600;50.864;6.102;2022-12-10T04:59:20;79.47;;;23.93;;
11092;SDS011;5600;50.864;6.102;2022-12-10T05:02:20;104.33;;;24.93;;
11092;SDS011;5600;50.864;6.102;2022-12-10T05:05:21;68.90;;;23.07;;
11092;SDS011;5600;50.864;6.102;2022-12-10T05:08:21;83.80;;;24.87;;
11092;SDS011;5600;50.864;6.102;2022-12-10T05:11:23;79.70;;;23.37;;
11092;SDS011;5600;50.864;6.102;2022-12-10T05:14:25;74.63;;;22.30;;
11092;SDS011;5600;50.864;6.102;2022-12-10T05:17:25;85.37;;;23.53;;
11092;SDS011;5600;50.864;6.102;2022-12-10T05:20:26;81.77;;;24.30;;
11092;SDS011;5600;50.864;6.102;2022-12-10T05:23:27;77.80;;;23.17;;
11092;SDS011;5600;50.864;6.102;2022-12-10T05:26:28;83.07;;;24.33;;
11092;SDS011;5600;50.864;6.102;2022-12-10T05:29:28;77.43;;;22.97;;
11092;SDS011;5600;50.864;6.102;2022-12-10T05:32:29;68.93;;;21.17;;
11092;SDS011;5600;50.864;6.102;2022-12-10T05:35:29;78.97;;;22.77;;
11092;SDS011;5600;50.864;6.102;2022-12-10T05:38:31;70.17;;;22.40;;
11092;SDS011;5600;50.864;6.102;2022-12-10T05:41:34;75.20;;;21.47;;
11092;SDS011;5600;50.864;6.102;2022-12-10T05:44:37;75.17;;;22.23;;
11092;SDS011;5600;50.864;6.102;2022-12-10T05:47:37;82.90;;;23.30;;
11092;SDS011;5600;50.864;6.102;2022-12-10T05:50:38;66.13;;;21.53;;
11092;SDS011;5600;50.864;6.102;2022-12-10T05:53:39;66.33;;;21.67;;
11092;SDS011;5600;50.864;6.102;2022-12-10T05:56:40;68.83;;;22.63;;
11092;SDS011;5600;50.864;6.102;2022-12-10T05:59:41;67.37;;;21.27;;
11092;SDS011;5600;50.864;6.102;2022-12-10T06:02:42;65.67;;;21.03;;
11092;SDS011;5600;50.864;6.102;2022-12-10T06:05:43;62.03;;;19.73;;
11092;SDS011;5600;50.864;6.102;2022-12-10T06:08:44;63.70;;;19.10;;
11092;SDS011;5600;50.864;6.102;2022-12-10T06:11:44;54.43;;;18.73;;
11092;SDS011;5600;50.864;6.102;2022-12-10T06:14:45;60.13;;;18.40;;
11092;SDS011;5600;50.864;6.102;2022-12-10T06:17:47;64.73;;;18.73;;
11092;SDS011;5600;50.864;6.102;2022-12-10T06:20:47;58.73;;;17.70;;
11092;SDS011;5600;50.864;6.102;2022-12-10T06:23:48;54.27;;;17.20;;
11092;SDS011;5600;50.864;6.102;2022-12-10T06:26:53;55.30;;;17.17;;
11092;SDS011;5600;50.864;6.102;2022-12-10T06:29:53;58.93;;;18.50;;
11092;SDS011;5600;50.864;6.102;2022-12-10T06:32:54;53.77;;;18.43;;
11092;SDS011;5600;50.864;6.102;2022-12-10T06:35:55;64.43;;;20.67;;
11092;SDS011;5600;50.864;6.102;2022-12-10T06:38:56;57.70;;;18.00;;
11092;SDS011;5600;50.864;6.102;2022-12-10T06:41:56;55.50;;;17.80;;
11092;SDS011;5600;50.864;6.102;2022-12-10T06:44:57;53.33;;;17.13;;
11092;SDS011;5600;50.864;6.102;2022-12-10T06:47:58;62.30;;;17.60;;
11092;SDS011;5600;50.864;6.102;2022-12-10T06:50:58;64.53;;;17.20;;
11092;SDS011;5600;50.864;6.102;2022-12-10T06:53:59;68.77;;;17.70;;
11092;SDS011;5600;50.864;6.102;2022-12-10T06:57:00;62.60;;;16.60;;
11092;SDS011;5600;50.864;6.102;2022-12-10T07:00:00;64.63;;;16.50;;
11092;SDS011;5600;50.864;6.102;2022-12-10T07:03:01;43.83;;;14.83;;
11092;SDS011;5600;50.864;6.102;2022-12-10T07:06:02;50.40;;;15.40;;
11092;SDS011;5600;50.864;6.102;2022-12-10T07:09:04;51.57;;;15.93;;
11092;SDS011;5600;50.864;6.102;2022-12-10T07:12:05;47.23;;;14.57;;
11092;SDS011;5600;50.864;6.102;2022-12-10T07:15:05;42.90;;;14.00;;
11092;SDS011;5600;50.864;6.102;2022-12-10T07:18:07;49.40;;;14.33;;
11092;SDS011;5600;50.864;6.102;2022-12-10T07:21:16;50.93;;;14.47;;
11092;SDS011;5600;50.864;6.102;2022-12-10T07:24:19;47.93;;;15.13;;
11092;SDS011;5600;50.864;6.102;2022-12-10T07:27:20;52.23;;;16.40;;
11092;SDS011;5600;50.864;6.102;2022-12-10T07:30:21;69.30;;;19.70;;
11092;SDS011;5600;50.864;6.102;2022-12-10T07:33:21;54.67;;;17.27;;
11092;SDS011;5600;50.864;6.102;2022-12-10T07:36:22;50.53;;;15.80;;
11092;SDS011;5600;50.864;6.102;2022-12-10T07:39:24;66.40;;;16.80;;
11092;SDS011;5600;50.864;6.102;2022-12-10T07:42:24;49.13;;;14.93;;
11092;SDS011;5600;50.864;6.102;2022-12-10T07:45:25;56.90;;;15.10;;
11092;SDS011;5600;50.864;6.102;2022-12-10T07:48:26;58.70;;;15.67;;
11092;SDS011;5600;50.864;6.102;2022-12-10T07:51:27;47.57;;;13.00;;
11092;SDS011;5600;50.864;6.102;2022-12-10T07:54:27;56.13;;;14.20;;
11092;SDS011;5600;50.864;6.102;2022-12-10T07:57:28;45.50;;;13.83;;
11092;SDS011;5600;50.864;6.102;2022-12-10T08:00:30;44.77;;;13.53;;
11092;SDS011;5600;50.864;6.102;2022-12-10T08:03:30;51.57;;;14.40;;
11092;SDS011;5600;50.864;6.102;2022-12-10T08:06:32;48.37;;;14.00;;
11092;SDS011;5600;50.864;6.102;2022-12-10T08:09:32;47.70;;;14.97;;
11092;SDS011;5600;50.864;6.102;2022-12-10T08:12:33;48.70;;;15.53;;
11092;SDS011;5600;50.864;6.102;2022-12-10T08:15:34;40.40;;;15.67;;
11092;SDS011;5600;50.864;6.102;2022-12-10T08:18:35;72.17;;;17.03;;
11092;SDS011;5600;50.864;6.102;2022-12-10T08:21:36;40.90;;;15.60;;
11092;SDS011;5600;50.864;6.102;2022-12-10T08:24:36;42.53;;;14.07;;
11092;SDS011;5600;50.864;6.102;2022-12-10T08:27:37;56.13;;;14.93;;
11092;SDS011;5600;50.864;6.102;2022-12-10T08:30:38;39.67;;;13.70;;
11092;SDS011;5600;50.864;6.102;2022-12-10T08:33:39;49.03;;;15.27;;
11092;SDS011;5600;50.864;6.102;2022-12-10T08:36:41;61.10;;;16.00;;
11092;SDS011;5600;50.864;6.102;2022-12-10T08:39:42;56.23;;;17.10;;
11092;SDS011;5600;50.864;6.102;2022-12-10T08:42:43;52.10;;;15.40;;
11092;SDS011;5600;50.864;6.102;2022-12-10T08:45:43;52.60;;;16.37;;
11092;SDS011;5600;50.864;6.102;2022-12-10T08:48:44;56.83;;;16.97;;
11092;SDS011;5600;50.864;6.102;2022-12-10T08:51:45;52.93;;;15.30;;
11092;SDS011;5600;50.864;6.102;2022-12-10T08:54:46;43.93;;;14.93;;
11092;SDS011;5600;50.864;6.102;2022-12-10T08:57:46;78.93;;;17.10;;
11092;SDS011;5600;50.864;6.102;2022-12-10T09:00:48;48.53;;;15.73;;
11092;SDS011;5600;50.864;6.102;2022-12-10T09:03:49;49.90;;;16.07;;
11092;SDS011;5600;50.864;6.102;2022-12-10T09:06:50;51.10;;;15.70;;
11092;SDS011;5600;50.864;6.102;2022-12-10T09:09:52;57.63;;;16.63;;
11092;SDS011;5600;50.864;6.102;2022-12-10T09:12:53;53.40;;;15.63;;
11092;SDS011;5600;50.864;6.102;2022-12-10T09:15:53;55.60;;;15.83;;
11092;SDS011;5600;50.864;6.102;2022-12-10T09:18:54;65.73;;;17.47;;
11092;SDS011;5600;50.864;6.102;2022-12-10T09:21:55;45.30;;;15.60;;
11092;SDS011;5600;50.864;6.102;2022-12-10T09:24:56;51.03;;;15.23;;
11092;SDS011;5600;50.864;6.102;2022-12-10T09:27:57;50.90;;;15.90;;
11092;SDS011;5600;50.864;6.102;2022-12-10T09:30:58;43.60;;;15.67;;
11092;SDS011;5600;50.864;6.102;2022-12-10T09:33:59;60.40;;;16.80;;
11092;SDS011;5600;50.864;6.102;2022-12-10T09:37:00;65.83;;;17.33;;
11092;SDS011;5600;50.864;6.102;2022-12-10T09:40:01;52.07;;;17.17;;
11092;SDS011;5600;50.864;6.102;2022-12-10T09:43:05;75.27;;;19.77;;
11092;SDS011;5600;50.864;6.102;2022-12-10T09:46:19;46.50;;;17.03;;
11092;SDS011;5600;50.864;6.102;2022-12-10T09:49:26;46.80;;;15.17;;
11092;SDS011;5600;50.864;6.102;2022-12-10T09:52:40;39.53;;;14.50;;
11092;SDS011;5600;50.864;6.102;2022-12-10T09:55:45;46.17;;;15.90;;
11092;SDS011;5600;50.864;6.102;2022-12-10T09:58:47;50.53;;;15.80;;
11092;SDS011;5600;50.864;6.102;2022-12-10T10:01:49;45.13;;;13.83;;
11092;SDS011;5600;50.864;6.102;2022-12-10T10:11:31;76.23;;;16.37;;
11092;SDS011;5600;50.864;6.102;2022-12-10T10:14:33;53.83;;;15.67;;
11092;SDS011;5600;50.864;6.102;2022-12-10T10:17:35;51.37;;;15.37;;
11092;SDS011;5600;50.864;6.102;2022-12-10T10:20:37;51.30;;;16.00;;
11092;SDS011;5600;50.864;6.102;2022-12-10T10:23:38;54.27;;;16.47;;
11092;SDS011;5600;50.864;6.102;2022-12-10T10:26:41;64.60;;;18.40;;
11092;SDS011;5600;50.864;6.102;2022-12-10T10:29:45;59.20;;;16.77;;
11092;SDS011;5600;50.864;6.102;2022-12-10T10:32:52;54.30;;;16.70;;
11092;SDS011;5600;50.864;6.102;2022-12-10T10:35:56;70.20;;;18.17;;
11092;SDS011;5600;50.864;6.102;2022-12-10T10:39:18;62.90;;;16.67;;
11092;SDS011;5600;50.864;6.102;2022-12-10T10:42:38;62.97;;;17.43;;
11092;SDS011;5600;50.864;6.102;2022-12-10T10:45:41;73.77;;;20.50;;
11092;SDS011;5600;50.864;6.102;2022-12-10T10:48:48;59.23;;;17.77;;
11092;SDS011;5600;50.864;6.102;2022-12-10T10:51:49;60.90;;;18.27;;
11092;SDS011;5600;50.864;6.102;2022-12-10T10:54:51;60.83;;;17.47;;
11092;SDS011;5600;50.864;6.102;2022-12-10T10:57:52;59.60;;;16.90;;
11092;SDS011;5600;50.864;6.102;2022-12-10T11:01:00;55.43;;;17.00;;
11092;SDS011;5600;50.864;6.102;2022-12-10T11:04:03;59.67;;;17.17;;
11092;SDS011;5600;50.864;6.102;2022-12-10T11:07:05;67.53;;;16.50;;
11092;SDS011;5600;50.864;6.102;2022-12-10T11:10:28;57.77;;;17.57;;
11092;SDS011;5600;50.864;6.102;2022-12-10T11:13:31;50.70;;;16.23;;
11092;SDS011;5600;50.864;6.102;2022-12-10T11:16:33;62.87;;;16.40;;
11092;SDS011;5600;50.864;6.102;2022-12-10T11:19:34;60.63;;;16.60;;
11092;SDS011;5600;50.864;6.102;2022-12-10T11:22:36;53.00;;;15.57;;
11092;SDS011;5600;50.864;6.102;2022-12-10T11:25:49;54.20;;;14.97;;
11092;SDS011;5600;50.864;6.102;2022-12-10T11:29:08;59.37;;;16.37;;
11092;SDS011;5600;50.864;6.102;2022-12-10T11:39:57;49.33;;;15.77;;
11092;SDS011;5600;50.864;6.102;2022-12-10T11:43:57;74.87;;;18.37;;
11092;SDS011;5600;50.864;6.102;2022-12-10T11:50:07;55.60;;;16.17;;
11092;SDS011;5600;50.864;6.102;2022-12-10T11:53:33;57.77;;;16.63;;
11092;SDS011;5600;50.864;6.102;2022-12-10T11:56:43;62.70;;;17.13;;
11092;SDS011;5600;50.864;6.102;2022-12-10T12:06:51;69.87;;;17.90;;
11092;SDS011;5600;50.864;6.102;2022-12-10T12:20:32;63.40;;;20.50;;
11092;SDS011;5600;50.864;6.102;2022-12-10T12:26:42;71.40;;;21.77;;
11092;SDS011;5600;50.864;6.102;2022-12-10T12:30:03;61.83;;;18.57;;
11092;SDS011;5600;50.864;6.102;2022-12-10T12:33:29;74.03;;;19.97;;
11092;SDS011;5600;50.864;6.102;2022-12-10T12:36:35;59.47;;;19.10;;
11092;SDS011;5600;50.864;6.102;2022-12-10T12:39:55;59.83;;;18.90;;
11092;SDS011;5600;50.864;6.102;2022-12-10T12:43:03;59.33;;;18.40;;
11092;SDS011;5600;50.864;6.102;2022-12-10T12:46:38;71.60;;;20.80;;
11092;SDS011;5600;50.864;6.102;2022-12-10T12:49:42;63.70;;;18.03;;
11092;SDS011;5600;50.864;6.102;2022-12-10T12:52:46;52.03;;;17.83;;
11092;SDS011;5600;50.864;6.102;2022-12-10T12:56:17;51.60;;;17.07;;
11092;SDS011;5600;50.864;6.102;2022-12-10T13:03:12;70.13;;;17.40;;
11092;SDS011;5600;50.864;6.102;2022-12-10T13:06:26;60.37;;;16.87;;
11092;SDS011;5600;50.864;6.102;2022-12-10T13:09:30;50.90;;;16.30;;
11092;SDS011;5600;50.864;6.102;2022-12-10T13:12:32;40.57;;;15.30;;
11092;SDS011;5600;50.864;6.102;2022-12-10T13:15:47;47.67;;;16.33;;
11092;SDS011;5600;50.864;6.102;2022-12-10T13:18:48;49.63;;;16.67;;
11092;SDS011;5600;50.864;6.102;2022-12-10T13:22:12;69.33;;;18.87;;
11092;SDS011;5600;50.864;6.102;2022-12-10T13:35:31;79.03;;;18.73;;
11092;SDS011;5600;50.864;6.102;2022-12-10T13:45:26;56.27;;;16.50;;
11092;SDS011;5600;50.864;6.102;2022-12-10T13:48:29;73.00;;;18.77;;
11092;SDS011;5600;50.864;6.102;2022-12-10T14:01:40;58.13;;;17.67;;
11092;SDS011;5600;50.864;6.102;2022-12-10T14:08:16;62.10;;;17.67;;
11092;SDS011;5600;50.864;6.102;2022-12-10T14:11:20;74.20;;;19.00;;
11092;SDS011;5600;50.864;6.102;2022-12-10T14:14:25;62.33;;;18.50;;
11092;SDS011;5600;50.864;6.102;2022-12-10T14:17:37;65.23;;;19.63;;
11092;SDS011;5600;50.864;6.102;2022-12-10T14:20:43;72.43;;;17.73;;
11092;SDS011;5600;50.864;6.102;2022-12-10T14:23:46;65.20;;;17.50;;
11092;SDS011;5600;50.864;6.102;2022-12-10T14:26:54;55.47;;;16.33;;
11092;SDS011;5600;50.864;6.102;2022-12-10T14:30:05;52.27;;;15.73;;
11092;SDS011;5600;50.864;6.102;2022-12-10T14:33:15;68.17;;;17.80;;
11092;SDS011;5600;50.864;6.102;2022-12-10T14:36:24;70.60;;;17.73;;
11092;SDS011;5600;50.864;6.102;2022-12-10T14:39:29;64.47;;;17.97;;
11092;SDS011;5600;50.864;6.102;2022-12-10T14:42:32;58.57;;;16.27;;
11092;SDS011;5600;50.864;6.102;2022-12-10T14:45:38;51.03;;;16.00;;
11092;SDS011;5600;50.864;6.102;2022-12-10T14:48:45;66.40;;;17.50;;
11092;SDS011;5600;50.864;6.102;2022-12-10T14:51:46;57.67;;;16.67;;
11092;SDS011;5600;50.864;6.102;2022-12-10T14:54:47;65.33;;;18.07;;
11092;SDS011;5600;50.864;6.102;2022-12-10T14:57:56;71.50;;;17.83;;
11092;SDS011;5600;50.864;6.102;2022-12-10T15:01:01;71.17;;;17.57;;
11092;SDS011;5600;50.864;6.102;2022-12-10T15:04:03;58.20;;;17.40;;
11092;SDS011;5600;50.864;6.102;2022-12-10T15:07:07;87.03;;;18.10;;
11092;SDS011;5600;50.864;6.102;2022-12-10T15:10:17;70.30;;;18.13;;
11092;SDS011;5600;50.864;6.102;2022-12-10T15:13:34;79.93;;;18.93;;
11092;SDS011;5600;50.864;6.102;2022-12-10T15:19:42;67.80;;;17.17;;
11092;SDS011;5600;50.864;6.102;2022-12-10T15:22:50;61.20;;;17.97;;
11092;SDS011;5600;50.864;6.102;2022-12-10T15:25:57;68.50;;;18.07;;
11092;SDS011;5600;50.864;6.102;2022-12-10T15:32:25;80.30;;;18.80;;
11092;SDS011;5600;50.864;6.102;2022-12-10T15:35:28;65.30;;;17.97;;
11092;SDS011;5600;50.864;6.102;2022-12-10T15:38:29;96.20;;;20.37;;
11092;SDS011;5600;50.864;6.102;2022-12-10T15:41:37;67.60;;;18.93;;
11092;SDS011;5600;50.864;6.102;2022-12-10T15:44:59;61.37;;;17.67;;
11092;SDS011;5600;50.864;6.102;2022-12-10T15:48:06;63.20;;;18.67;;
11092;SDS011;5600;50.864;6.102;2022-12-10T15:51:10;68.23;;;20.17;;
11092;SDS011;5600;50.864;6.102;2022-12-10T15:57:31;81.07;;;20.17;;
11092;SDS011;5600;50.864;6.102;2022-12-10T16:00:34;60.97;;;18.27;;
11092;SDS011;5600;50.864;6.102;2022-12-10T16:03:34;57.53;;;18.33;;
11092;SDS011;5600;50.864;6.102;2022-12-10T16:06:37;65.37;;;18.23;;
11092;SDS011;5600;50.864;6.102;2022-12-10T16:09:37;65.60;;;19.20;;
11092;SDS011;5600;50.864;6.102;2022-12-10T16:12:38;52.20;;;16.37;;
11092;SDS011;5600;50.864;6.102;2022-12-10T16:15:43;56.97;;;16.83;;
11092;SDS011;5600;50.864;6.102;2022-12-10T16:18:46;57.67;;;17.97;;
11092;SDS011;5600;50.864;6.102;2022-12-10T16:21:47;82.27;;;20.00;;
11092;SDS011;5600;50.864;6.102;2022-12-10T16:24:48;71.00;;;20.73;;
11092;SDS011;5600;50.864;6.102;2022-12-10T16:27:49;74.70;;;19.57;;
11092;SDS011;5600;50.864;6.102;2022-12-10T16:30:51;55.57;;;19.93;;
11092;SDS011;5600;50.864;6.102;2022-12-10T16:33:56;60.17;;;17.80;;
11092;SDS011;5600;50.864;6.102;2022-12-10T16:36:56;56.13;;;17.33;;
11092;SDS011;5600;50.864;6.102;2022-12-10T16:39:57;70.70;;;17.97;;
11092;SDS011;5600;50.864;6.102;2022-12-10T16:42:58;60.37;;;17.50;;
11092;SDS011;5600;50.864;6.102;2022-12-10T16:45:58;66.57;;;20.20;;
11092;SDS011;5600;50.864;6.102;2022-12-10T16:48:59;60.20;;;17.50;;
11092;SDS011;5600;50.864;6.102;2022-12-10T16:51:59;79.43;;;20.13;;
11092;SDS011;5600;50.864;6.102;2022-12-10T16:55:00;53.80;;;17.93;;
11092;SDS011;5600;50.864;6.102;2022-12-10T16:58:01;54.53;;;17.73;;
11092;SDS011;5600;50.864;6.102;2022-12-10T17:01:02;45.50;;;17.70;;
11092;SDS011;5600;50.864;6.102;2022-12-10T17:04:02;58.30;;;18.40;;
11092;SDS011;5600;50.864;6.102;2022-12-10T17:07:03;64.30;;;16.83;;
11092;SDS011;5600;50.864;6.102;2022-12-10T17:10:04;55.77;;;17.93;;
11092;SDS011;5600;50.864;6.102;2022-12-10T17:13:07;55.07;;;17.27;;
11092;SDS011;5600;50.864;6.102;2022-12-10T17:16:15;61.20;;;17.93;;
11092;SDS011;5600;50.864;6.102;2022-12-10T17:19:19;69.67;;;18.73;;
11092;SDS011;5600;50.864;6.102;2022-12-10T17:22:20;61.33;;;17.90;;
11092;SDS011;5600;50.864;6.102;2022-12-10T17:25:21;67.80;;;19.50;;
11092;SDS011;5600;50.864;6.102;2022-12-10T17:28:21;70.30;;;19.33;;
11092;SDS011;5600;50.864;6.102;2022-12-10T17:31:23;65.27;;;19.47;;
11092;SDS011;5600;50.864;6.102;2022-12-10T17:34:23;62.37;;;18.40;;
11092;SDS011;5600;50.864;6.102;2022-12-10T17:37:24;65.30;;;18.60;;
11092;SDS011;5600;50.864;6.102;2022-12-10T17:40:28;60.87;;;19.03;;
11092;SDS011;5600;50.864;6.102;2022-12-10T17:43:29;64.77;;;18.47;;
11092;SDS011;5600;50.864;6.102;2022-12-10T17:46:29;55.00;;;18.07;;
11092;SDS011;5600;50.864;6.102;2022-12-10T17:49:30;65.73;;;19.30;;
11092;SDS011;5600;50.864;6.102;2022-12-10T17:52:32;54.90;;;17.23;;
11092;SDS011;5600;50.864;6.102;2022-12-10T17:55:33;52.03;;;16.80;;
11092;SDS011;5600;50.864;6.102;2022-12-10T17:58:34;57.50;;;17.73;;
11092;SDS011;5600;50.864;6.102;2022-12-10T18:01:37;57.53;;;16.90;;
11092;SDS011;5600;50.864;6.102;2022-12-10T18:04:38;60.50;;;17.70;;
11092;SDS011;5600;50.864;6.102;2022-12-10T18:07:39;64.70;;;18.23;;
11092;SDS011;5600;50.864;6.102;2022-12-10T18:10:40;66.67;;;17.13;;
11092;SDS011;5600;50.864;6.102;2022-12-10T18:13:41;53.27;;;17.33;;
11092;SDS011;5600;50.864;6.102;2022-12-10T18:16:42;61.07;;;17.63;;
11092;SDS011;5600;50.864;6.102;2022-12-10T18:19:43;58.07;;;17.53;;
11092;SDS011;5600;50.864;6.102;2022-12-10T18:22:44;60.47;;;17.67;;
11092;SDS011;5600;50.864;6.102;2022-12-10T18:25:45;89.30;;;19.10;;
11092;SDS011;5600;50.864;6.102;2022-12-10T18:28:58;87.00;;;20.80;;
11092;SDS011;5600;50.864;6.102;2022-12-10T18:32:00;76.23;;;20.23;;
11092;SDS011;5600;50.864;6.102;2022-12-10T18:35:00;72.70;;;19.03;;
11092;SDS011;5600;50.864;6.102;2022-12-10T18:38:01;64.23;;;18.67;;
11092;SDS011;5600;50.864;6.102;2022-12-10T18:41:02;137.57;;;22.50;;
11092;SDS011;5600;50.864;6.102;2022-12-10T18:44:02;59.93;;;17.97;;
11092;SDS011;5600;50.864;6.102;2022-12-10T18:47:08;69.27;;;18.10;;
11092;SDS011;5600;50.864;6.102;2022-12-10T18:50:19;66.17;;;19.13;;
11092;SDS011;5600;50.864;6.102;2022-12-10T18:53:24;59.63;;;18.33;;
11092;SDS011;5600;50.864;6.102;2022-12-10T18:56:26;75.50;;;18.63;;
11092;SDS011;5600;50.864;6.102;2022-12-10T18:59:29;68.37;;;19.30;;
11092;SDS011;5600;50.864;6.102;2022-12-10T19:02:30;68.50;;;18.50;;
11092;SDS011;5600;50.864;6.102;2022-12-10T19:05:31;75.90;;;19.80;;
11092;SDS011;5600;50.864;6.102;2022-12-10T19:08:33;83.80;;;19.47;;
11092;SDS011;5600;50.864;6.102;2022-12-10T19:11:33;67.73;;;17.80;;
11092;SDS011;5600;50.864;6.102;2022-12-10T19:14:34;78.10;;;18.73;;
11092;SDS011;5600;50.864;6.102;2022-12-10T19:17:36;81.87;;;19.17;;
11092;SDS011;5600;50.864;6.102;2022-12-10T19:20:37;67.47;;;18.43;;
11092;SDS011;5600;50.864;6.102;2022-12-10T19:23:39;72.30;;;19.20;;
11092;SDS011;5600;50.864;6.102;2022-12-10T19:26:41;68.87;;;18.33;;
11092;SDS011;5600;50.864;6.102;2022-12-10T19:29:43;124.23;;;22.57;;
11092;SDS011;5600;50.864;6.102;2022-12-10T19:32:45;72.47;;;22.47;;
11092;SDS011;5600;50.864;6.102;2022-12-10T19:35:46;92.20;;;22.37;;